Terminal Aerodrome Forecast
Issued by NWS Wichita, KS

Home | Current Version | Previous Version | Text Only | Print | Product List | Glossary Off
Versions: 1 2 3 4 5 6 7 8 9 10 11 12 13 14 15

000
FTUS43 KICT 200717 AAA
TAFICT
TAF AMD
KICT 200717Z 2007/2106 15010KT 5SM -RA SCT005 BKN015
      TEMPO 2007/2011 3SM BR BKN005
     FM201100 17010KT 5SM BR SCT005 BKN100
     FM201500 19010KT P6SM SCT015
     FM210000 34010KT P6SM SKC=

USA.gov is the U.S. government's official web portal to all federal, state and local government web resources and services.